sensor_id;sensor_type;location;lat;lon;timestamp;pressure;altitude;pressure_sealevel;temperature;humidity
69911;BME280;63555;49.920;17.868;2023-03-21T00:00:26;98671.16;;;6.40;94.23
69911;BME280;63555;49.920;17.868;2023-03-21T00:05:27;98666.09;;;6.23;94.20
69911;BME280;63555;49.920;17.868;2023-03-21T00:10:27;98663.59;;;6.05;94.25
69911;BME280;63555;49.920;17.868;2023-03-21T00:15:27;98671.97;;;5.96;93.97
69911;BME280;63555;49.920;17.868;2023-03-21T00:20:32;98666.94;;;5.93;94.52
69911;BME280;63555;49.920;17.868;2023-03-21T00:25:36;98673.94;;;5.93;94.44
69911;BME280;63555;49.920;17.868;2023-03-21T00:30:39;98675.19;;;5.86;94.73
69911;BME280;63555;49.920;17.868;2023-03-21T00:35:40;98670.75;;;5.72;94.73
69911;BME280;63555;49.920;17.868;2023-03-21T00:40:42;98670.53;;;5.61;94.42
69911;BME280;63555;49.920;17.868;2023-03-21T00:45:44;98673.00;;;5.48;94.53
69911;BME280;63555;49.920;17.868;2023-03-21T00:50:45;98672.00;;;5.35;94.27
69911;BME280;63555;49.920;17.868;2023-03-21T00:55:46;98666.19;;;5.30;94.28
69911;BME280;63555;49.920;17.868;2023-03-21T01:00:47;98671.50;;;5.28;94.60
69911;BME280;63555;49.920;17.868;2023-03-21T01:05:48;98667.34;;;5.40;95.32
69911;BME280;63555;49.920;17.868;2023-03-21T01:11:23;98671.06;;;5.52;95.23
69911;BME280;63555;49.920;17.868;2023-03-21T01:16:23;98670.78;;;5.56;95.25
69911;BME280;63555;49.920;17.868;2023-03-21T01:21:24;98665.97;;;5.64;96.03
69911;BME280;63555;49.920;17.868;2023-03-21T01:26:24;98663.00;;;5.70;95.91
69911;BME280;63555;49.920;17.868;2023-03-21T01:31:25;98659.94;;;5.78;96.08
69911;BME280;63555;49.920;17.868;2023-03-21T01:36:25;98658.81;;;5.82;96.01
69911;BME280;63555;49.920;17.868;2023-03-21T01:41:38;98660.69;;;5.80;96.65
69911;BME280;63555;49.920;17.868;2023-03-21T01:46:42;98658.06;;;5.80;96.37
69911;BME280;63555;49.920;17.868;2023-03-21T01:51:49;98650.88;;;5.84;96.48
69911;BME280;63555;49.920;17.868;2023-03-21T01:56:52;98654.03;;;5.90;96.31
69911;BME280;63555;49.920;17.868;2023-03-21T02:01:55;98646.84;;;5.94;96.17
69911;BME280;63555;49.920;17.868;2023-03-21T02:07:13;98638.72;;;5.98;96.21
69911;BME280;63555;49.920;17.868;2023-03-21T02:12:17;98635.06;;;6.01;96.20
69911;BME280;63555;49.920;17.868;2023-03-21T02:23:12;98636.44;;;6.08;96.92
69911;BME280;63555;49.920;17.868;2023-03-21T02:39:07;98630.16;;;6.11;96.72
69911;BME280;63555;49.920;17.868;2023-03-21T02:54:26;98638.97;;;6.24;96.90
69911;BME280;63555;49.920;17.868;2023-03-21T02:59:27;98632.03;;;6.23;96.91
69911;BME280;63555;49.920;17.868;2023-03-21T03:04:29;98638.13;;;6.23;96.83
69911;BME280;63555;49.920;17.868;2023-03-21T03:15:21;98635.69;;;6.20;97.29
69911;BME280;63555;49.920;17.868;2023-03-21T03:30:49;98649.06;;;6.30;97.32
69911;BME280;63555;49.920;17.868;2023-03-21T03:35:52;98649.72;;;6.33;97.34
69911;BME280;63555;49.920;17.868;2023-03-21T03:40:58;98636.91;;;6.29;97.20
69911;BME280;63555;49.920;17.868;2023-03-21T03:46:09;98613.72;;;6.23;97.12
69911;BME280;63555;49.920;17.868;2023-03-21T03:51:18;98620.91;;;6.19;96.99
69911;BME280;63555;49.920;17.868;2023-03-21T03:56:20;98624.47;;;6.18;96.89
69911;BME280;63555;49.920;17.868;2023-03-21T04:01:21;98617.63;;;6.16;97.57
69911;BME280;63555;49.920;17.868;2023-03-21T04:06:21;98626.16;;;6.19;97.02
69911;BME280;63555;49.920;17.868;2023-03-21T04:11:23;98622.50;;;6.22;97.56
69911;BME280;63555;49.920;17.868;2023-03-21T04:16:23;98626.63;;;6.26;97.91
69911;BME280;63555;49.920;17.868;2023-03-21T04:21:24;98621.19;;;6.29;97.71
69911;BME280;63555;49.920;17.868;2023-03-21T04:26:26;98621.94;;;6.31;97.51
69911;BME280;63555;49.920;17.868;2023-03-21T04:31:32;98616.63;;;6.32;97.72
69911;BME280;63555;49.920;17.868;2023-03-21T04:36:33;98623.72;;;6.30;97.31
69911;BME280;63555;49.920;17.868;2023-03-21T04:41:39;98624.75;;;6.28;97.72
69911;BME280;63555;49.920;17.868;2023-03-21T04:46:40;98624.75;;;6.28;98.27
69911;BME280;63555;49.920;17.868;2023-03-21T04:51:40;98618.88;;;6.24;97.98
69911;BME280;63555;49.920;17.868;2023-03-21T04:56:43;98615.69;;;6.19;97.74
69911;BME280;63555;49.920;17.868;2023-03-21T05:01:44;98623.81;;;6.15;97.60
69911;BME280;63555;49.920;17.868;2023-03-21T05:06:45;98621.13;;;6.00;97.62
69911;BME280;63555;49.920;17.868;2023-03-21T05:11:45;98619.41;;;5.85;97.09
69911;BME280;63555;49.920;17.868;2023-03-21T05:16:45;98623.13;;;5.81;97.33
69911;BME280;63555;49.920;17.868;2023-03-21T05:21:52;98615.63;;;5.75;97.37
69911;BME280;63555;49.920;17.868;2023-03-21T05:26:52;98623.66;;;5.72;97.42
69911;BME280;63555;49.920;17.868;2023-03-21T05:31:56;98618.59;;;5.69;97.51
69911;BME280;63555;49.920;17.868;2023-03-21T05:36:56;98621.22;;;5.69;97.79
69911;BME280;63555;49.920;17.868;2023-03-21T05:41:56;98624.03;;;5.66;97.51
69911;BME280;63555;49.920;17.868;2023-03-21T05:46:57;98621.50;;;5.64;97.76
69911;BME280;63555;49.920;17.868;2023-03-21T05:51:57;98625.00;;;5.79;97.74
69911;BME280;63555;49.920;17.868;2023-03-21T05:56:58;98638.31;;;6.20;98.09
69911;BME280;63555;49.920;17.868;2023-03-21T06:01:58;98636.22;;;7.11;99.13
69911;BME280;63555;49.920;17.868;2023-03-21T06:06:59;98635.13;;;7.27;99.95
69911;BME280;63555;49.920;17.868;2023-03-21T06:12:00;98643.56;;;7.32;99.86
69911;BME280;63555;49.920;17.868;2023-03-21T06:17:00;98642.31;;;7.38;100.00
69911;BME280;63555;49.920;17.868;2023-03-21T06:22:00;98655.78;;;7.46;100.00
69911;BME280;63555;49.920;17.868;2023-03-21T06:27:01;98659.00;;;7.37;100.00
69911;BME280;63555;49.920;17.868;2023-03-21T06:32:01;98667.47;;;7.28;100.00
69911;BME280;63555;49.920;17.868;2023-03-21T06:37:02;98670.72;;;7.31;99.96
69911;BME280;63555;49.920;17.868;2023-03-21T06:42:03;98673.78;;;7.38;100.00
69911;BME280;63555;49.920;17.868;2023-03-21T06:47:03;98672.38;;;7.47;99.59
69911;BME280;63555;49.920;17.868;2023-03-21T06:52:03;98669.44;;;7.51;100.00
69911;BME280;63555;49.920;17.868;2023-03-21T06:57:04;98678.69;;;7.57;100.00
69911;BME280;63555;49.920;17.868;2023-03-21T07:02:05;98693.81;;;7.80;100.00
69911;BME280;63555;49.920;17.868;2023-03-21T07:07:05;98699.88;;;8.08;100.00
69911;BME280;63555;49.920;17.868;2023-03-21T07:12:06;98694.53;;;8.22;100.00
69911;BME280;63555;49.920;17.868;2023-03-21T07:17:06;98701.06;;;8.29;100.00
69911;BME280;63555;49.920;17.868;2023-03-21T07:22:07;98711.47;;;8.30;100.00
69911;BME280;63555;49.920;17.868;2023-03-21T07:27:07;98706.44;;;8.27;100.00
69911;BME280;63555;49.920;17.868;2023-03-21T07:32:09;98708.56;;;8.35;100.00
69911;BME280;63555;49.920;17.868;2023-03-21T07:37:09;98716.47;;;8.48;100.00
69911;BME280;63555;49.920;17.868;2023-03-21T07:42:09;98715.03;;;8.69;100.00
69911;BME280;63555;49.920;17.868;2023-03-21T07:47:10;98713.97;;;8.72;100.00
69911;BME280;63555;49.920;17.868;2023-03-21T07:52:11;98711.97;;;8.88;100.00
69911;BME280;63555;49.920;17.868;2023-03-21T07:57:12;98706.25;;;9.19;100.00
69911;BME280;63555;49.920;17.868;2023-03-21T08:02:13;98712.16;;;9.60;100.00
69911;BME280;63555;49.920;17.868;2023-03-21T08:07:14;98716.56;;;9.83;100.00
69911;BME280;63555;49.920;17.868;2023-03-21T08:12:14;98718.47;;;9.81;100.00
69911;BME280;63555;49.920;17.868;2023-03-21T08:17:15;98720.22;;;9.69;100.00
69911;BME280;63555;49.920;17.868;2023-03-21T08:22:16;98726.56;;;9.67;100.00
69911;BME280;63555;49.920;17.868;2023-03-21T08:27:16;98719.88;;;9.74;100.00
69911;BME280;63555;49.920;17.868;2023-03-21T08:32:17;98728.56;;;9.63;99.27
69911;BME280;63555;49.920;17.868;2023-03-21T08:37:18;98722.47;;;9.50;99.06
69911;BME280;63555;49.920;17.868;2023-03-21T08:42:19;98730.31;;;9.26;98.15
69911;BME280;63555;49.920;17.868;2023-03-21T08:47:22;98738.88;;;9.04;97.99
69911;BME280;63555;49.920;17.868;2023-03-21T08:52:22;98736.69;;;8.98;98.04
69911;BME280;63555;49.920;17.868;2023-03-21T08:57:23;98733.31;;;9.09;98.20
69911;BME280;63555;49.920;17.868;2023-03-21T09:02:23;98734.75;;;9.25;98.57
69911;BME280;63555;49.920;17.868;2023-03-21T09:07:24;98739.66;;;9.55;99.00
69911;BME280;63555;49.920;17.868;2023-03-21T09:12:25;98742.69;;;9.86;99.23
69911;BME280;63555;49.920;17.868;2023-03-21T09:17:25;98749.53;;;10.36;99.54
69911;BME280;63555;49.920;17.868;2023-03-21T09:22:26;98744.34;;;10.70;99.88
69911;BME280;63555;49.920;17.868;2023-03-21T09:27:27;98747.94;;;10.58;99.71
69911;BME280;63555;49.920;17.868;2023-03-21T09:32:27;98749.19;;;10.41;98.31
69911;BME280;63555;49.920;17.868;2023-03-21T09:37:28;98750.09;;;10.29;97.74
69911;BME280;63555;49.920;17.868;2023-03-21T09:47:47;98763.16;;;10.30;97.62
69911;BME280;63555;49.920;17.868;2023-03-21T09:52:57;98766.03;;;10.27;97.71
69911;BME280;63555;49.920;17.868;2023-03-21T09:58:12;98756.94;;;10.31;97.89
69911;BME280;63555;49.920;17.868;2023-03-21T10:03:21;98754.00;;;10.47;97.95
69911;BME280;63555;49.920;17.868;2023-03-21T10:08:32;98745.09;;;10.72;97.92
69911;BME280;63555;49.920;17.868;2023-03-21T10:13:42;98747.28;;;11.11;98.55
69911;BME280;63555;49.920;17.868;2023-03-21T10:18:44;98745.22;;;11.60;99.02
69911;BME280;63555;49.920;17.868;2023-03-21T10:23:45;98739.84;;;12.04;98.86
69911;BME280;63555;49.920;17.868;2023-03-21T10:28:48;98737.34;;;12.76;99.23
69911;BME280;63555;49.920;17.868;2023-03-21T10:33:49;98734.38;;;13.52;99.15
69911;BME280;63555;49.920;17.868;2023-03-21T10:38:54;98739.13;;;14.37;98.42
69911;BME280;63555;49.920;17.868;2023-03-21T10:44:13;98738.16;;;14.47;94.58
69911;BME280;63555;49.920;17.868;2023-03-21T10:49:15;98735.34;;;14.29;93.30
69911;BME280;63555;49.920;17.868;2023-03-21T10:54:19;98745.25;;;13.98;92.56
69911;BME280;63555;49.920;17.868;2023-03-21T10:59:20;98745.47;;;13.76;93.02
69911;BME280;63555;49.920;17.868;2023-03-21T11:04:26;98742.13;;;13.34;92.38
69911;BME280;63555;49.920;17.868;2023-03-21T11:14:49;98747.22;;;12.33;93.09
69911;BME280;63555;49.920;17.868;2023-03-21T11:24:56;98750.59;;;11.69;93.23
69911;BME280;63555;49.920;17.868;2023-03-21T11:30:00;98743.34;;;11.28;93.68
69911;BME280;63555;49.920;17.868;2023-03-21T11:35:04;98742.72;;;10.91;93.53
69911;BME280;63555;49.920;17.868;2023-03-21T11:40:29;98740.50;;;10.63;93.83
69911;BME280;63555;49.920;17.868;2023-03-21T11:45:32;98738.94;;;10.25;93.71
69911;BME280;63555;49.920;17.868;2023-03-21T12:00:49;98732.25;;;10.08;95.61
69911;BME280;63555;49.920;17.868;2023-03-21T12:06:00;98733.38;;;10.17;95.86
69911;BME280;63555;49.920;17.868;2023-03-21T12:11:14;98732.88;;;10.12;95.28
69911;BME280;63555;49.920;17.868;2023-03-21T12:38:07;98725.25;;;9.72;94.78
69911;BME280;63555;49.920;17.868;2023-03-21T12:43:30;98711.63;;;9.54;95.03
69911;BME280;63555;49.920;17.868;2023-03-21T12:48:41;98713.22;;;9.44;95.09
69911;BME280;63555;49.920;17.868;2023-03-21T12:53:54;98704.16;;;9.48;95.69
69911;BME280;63555;49.920;17.868;2023-03-21T13:04:39;98700.78;;;9.59;95.84
69911;BME280;63555;49.920;17.868;2023-03-21T13:09:41;98699.28;;;9.68;95.93
69911;BME280;63555;49.920;17.868;2023-03-21T13:15:04;98692.88;;;9.83;96.28
69911;BME280;63555;49.920;17.868;2023-03-21T13:20:18;98690.63;;;9.89;96.17
69911;BME280;63555;49.920;17.868;2023-03-21T13:25:23;98695.13;;;10.11;96.36
69911;BME280;63555;49.920;17.868;2023-03-21T13:30:26;98683.50;;;10.38;96.21
69911;BME280;63555;49.920;17.868;2023-03-21T13:35:36;98678.66;;;10.67;96.40
69911;BME280;63555;49.920;17.868;2023-03-21T13:40:49;98667.03;;;10.92;96.45
69911;BME280;63555;49.920;17.868;2023-03-21T13:45:52;98666.78;;;11.28;96.22
69911;BME280;63555;49.920;17.868;2023-03-21T13:51:03;98669.75;;;11.46;95.39
69911;BME280;63555;49.920;17.868;2023-03-21T14:06:10;98657.19;;;12.34;94.41
69911;BME280;63555;49.920;17.868;2023-03-21T14:11:16;98645.56;;;12.47;93.30
69911;BME280;63555;49.920;17.868;2023-03-21T14:16:18;98641.06;;;12.37;92.45
69911;BME280;63555;49.920;17.868;2023-03-21T14:21:22;98634.78;;;12.38;93.03
69911;BME280;63555;49.920;17.868;2023-03-21T14:26:24;98632.41;;;12.35;92.66
69911;BME280;63555;49.920;17.868;2023-03-21T14:31:25;98639.44;;;12.25;92.82
69911;BME280;63555;49.920;17.868;2023-03-21T14:36:29;98635.09;;;12.03;92.70
69911;BME280;63555;49.920;17.868;2023-03-21T14:41:31;98641.06;;;11.85;93.01
69911;BME280;63555;49.920;17.868;2023-03-21T14:46:32;98633.78;;;11.66;93.03
69911;BME280;63555;49.920;17.868;2023-03-21T14:51:32;98638.91;;;11.46;93.03
69911;BME280;63555;49.920;17.868;2023-03-21T14:56:34;98628.75;;;11.20;92.88
69911;BME280;63555;49.920;17.868;2023-03-21T15:01:36;98629.00;;;11.05;93.25
69911;BME280;63555;49.920;17.868;2023-03-21T15:06:57;98623.63;;;10.96;93.58
69911;BME280;63555;49.920;17.868;2023-03-21T15:11:58;98618.25;;;10.86;93.73
69911;BME280;63555;49.920;17.868;2023-03-21T15:17:00;98620.63;;;10.78;93.74
69911;BME280;63555;49.920;17.868;2023-03-21T15:22:15;98619.81;;;10.66;93.74
69911;BME280;63555;49.920;17.868;2023-03-21T15:27:19;98603.97;;;10.55;94.42
69911;BME280;63555;49.920;17.868;2023-03-21T15:32:25;98598.84;;;10.53;94.67
69911;BME280;63555;49.920;17.868;2023-03-21T15:37:27;98608.53;;;10.53;94.83
69911;BME280;63555;49.920;17.868;2023-03-21T15:42:29;98607.59;;;10.54;94.45
69911;BME280;63555;49.920;17.868;2023-03-21T15:52:49;98607.06;;;10.38;94.18
69911;BME280;63555;49.920;17.868;2023-03-21T15:57:51;98603.69;;;10.25;93.83
69911;BME280;63555;49.920;17.868;2023-03-21T16:02:58;98606.41;;;10.12;93.94
69911;BME280;63555;49.920;17.868;2023-03-21T16:08:25;98596.91;;;9.98;93.95
69911;BME280;63555;49.920;17.868;2023-03-21T16:13:26;98594.25;;;9.87;94.23
69911;BME280;63555;49.920;17.868;2023-03-21T16:18:26;98596.72;;;9.77;94.26
69911;BME280;63555;49.920;17.868;2023-03-21T16:23:28;98599.31;;;9.66;94.33
69911;BME280;63555;49.920;17.868;2023-03-21T16:28:29;98603.78;;;9.53;94.21
69911;BME280;63555;49.920;17.868;2023-03-21T16:33:29;98610.06;;;9.39;94.24
69911;BME280;63555;49.920;17.868;2023-03-21T16:38:30;98611.09;;;9.25;94.72
69911;BME280;63555;49.920;17.868;2023-03-21T16:43:30;98622.38;;;9.15;94.59
69911;BME280;63555;49.920;17.868;2023-03-21T16:48:31;98631.66;;;9.08;95.02
69911;BME280;63555;49.920;17.868;2023-03-21T16:53:31;98631.16;;;9.03;94.96
69911;BME280;63555;49.920;17.868;2023-03-21T16:58:32;98633.28;;;8.98;95.12
69911;BME280;63555;49.920;17.868;2023-03-21T17:03:32;98635.38;;;8.92;95.31
69911;BME280;63555;49.920;17.868;2023-03-21T17:08:33;98631.63;;;8.84;95.17
69911;BME280;63555;49.920;17.868;2023-03-21T17:13:33;98634.69;;;8.78;95.00
69911;BME280;63555;49.920;17.868;2023-03-21T17:18:34;98630.06;;;8.69;95.11
69911;BME280;63555;49.920;17.868;2023-03-21T17:23:34;98632.25;;;8.62;94.87
69911;BME280;63555;49.920;17.868;2023-03-21T17:28:39;98635.09;;;8.59;95.45
69911;BME280;63555;49.920;17.868;2023-03-21T17:33:39;98644.03;;;8.56;95.56
69911;BME280;63555;49.920;17.868;2023-03-21T17:38:41;98649.59;;;8.52;95.70
69911;BME280;63555;49.920;17.868;2023-03-21T17:43:41;98656.88;;;8.48;95.88
69911;BME280;63555;49.920;17.868;2023-03-21T17:48:43;98653.50;;;8.46;95.80
69911;BME280;63555;49.920;17.868;2023-03-21T17:53:45;98642.78;;;8.37;95.67
69911;BME280;63555;49.920;17.868;2023-03-21T17:58:46;98645.50;;;8.35;95.66
69911;BME280;63555;49.920;17.868;2023-03-21T18:03:47;98644.84;;;8.31;95.33
69911;BME280;63555;49.920;17.868;2023-03-21T18:08:48;98645.91;;;8.29;95.81
69911;BME280;63555;49.920;17.868;2023-03-21T18:13:49;98661.03;;;8.25;95.72
69911;BME280;63555;49.920;17.868;2023-03-21T18:18:50;98654.19;;;8.23;96.00
69911;BME280;63555;49.920;17.868;2023-03-21T18:23:52;98651.03;;;8.18;95.47
69911;BME280;63555;49.920;17.868;2023-03-21T18:28:53;98646.94;;;8.14;95.79
69911;BME280;63555;49.920;17.868;2023-03-21T18:33:53;98654.41;;;8.07;95.92
69911;BME280;63555;49.920;17.868;2023-03-21T18:38:53;98656.59;;;8.01;95.47
69911;BME280;63555;49.920;17.868;2023-03-21T18:43:55;98659.72;;;7.93;95.57
69911;BME280;63555;49.920;17.868;2023-03-21T18:48:55;98658.44;;;7.86;95.21
69911;BME280;63555;49.920;17.868;2023-03-21T18:53:56;98656.97;;;7.82;95.95
69911;BME280;63555;49.920;17.868;2023-03-21T18:58:57;98656.50;;;7.75;95.34
69911;BME280;63555;49.920;17.868;2023-03-21T19:03:58;98654.59;;;7.64;95.24
69911;BME280;63555;49.920;17.868;2023-03-21T19:08:59;98658.56;;;7.57;95.81
69911;BME280;63555;49.920;17.868;2023-03-21T19:14:00;98658.22;;;7.49;95.64
69911;BME280;63555;49.920;17.868;2023-03-21T19:19:00;98658.81;;;7.40;95.76
69911;BME280;63555;49.920;17.868;2023-03-21T19:24:02;98653.09;;;7.33;95.33
69911;BME280;63555;49.920;17.868;2023-03-21T19:29:02;98642.16;;;7.27;95.49
69911;BME280;63555;49.920;17.868;2023-03-21T19:34:03;98640.28;;;7.29;95.61
69911;BME280;63555;49.920;17.868;2023-03-21T19:39:03;98647.13;;;7.31;95.79
69911;BME280;63555;49.920;17.868;2023-03-21T19:44:04;98644.41;;;7.33;95.46
69911;BME280;63555;49.920;17.868;2023-03-21T19:49:04;98643.25;;;7.37;96.10
69911;BME280;63555;49.920;17.868;2023-03-21T19:54:05;98638.84;;;7.38;96.09
69911;BME280;63555;49.920;17.868;2023-03-21T19:59:06;98638.00;;;7.37;96.25
69911;BME280;63555;49.920;17.868;2023-03-21T20:04:07;98648.69;;;7.34;95.75
69911;BME280;63555;49.920;17.868;2023-03-21T20:09:08;98654.78;;;7.34;96.00
69911;BME280;63555;49.920;17.868;2023-03-21T20:14:08;98641.88;;;7.31;95.80
69911;BME280;63555;49.920;17.868;2023-03-21T20:19:11;98643.66;;;7.31;95.43
69911;BME280;63555;49.920;17.868;2023-03-21T20:24:11;98632.41;;;7.29;95.76
69911;BME280;63555;49.920;17.868;2023-03-21T20:29:12;98634.50;;;7.24;95.40
69911;BME280;63555;49.920;17.868;2023-03-21T20:34:13;98638.06;;;7.23;95.53
69911;BME280;63555;49.920;17.868;2023-03-21T20:39:13;98638.16;;;7.21;96.00
69911;BME280;63555;49.920;17.868;2023-03-21T20:44:14;98656.72;;;7.18;95.84
69911;BME280;63555;49.920;17.868;2023-03-21T20:49:17;98626.19;;;7.17;95.48
69911;BME280;63555;49.920;17.868;2023-03-21T20:54:19;98611.88;;;7.09;95.56
69911;BME280;63555;49.920;17.868;2023-03-21T20:59:19;98624.63;;;7.00;95.75
69911;BME280;63555;49.920;17.868;2023-03-21T21:04:19;98625.94;;;6.93;95.58
69911;BME280;63555;49.920;17.868;2023-03-21T21:09:20;98626.41;;;6.86;95.37
69911;BME280;63555;49.920;17.868;2023-03-21T21:14:21;98635.88;;;6.74;95.54
69911;BME280;63555;49.920;17.868;2023-03-21T21:19:21;98634.00;;;6.62;94.91
69911;BME280;63555;49.920;17.868;2023-03-21T21:24:21;98633.47;;;6.57;95.08
69911;BME280;63555;49.920;17.868;2023-03-21T21:29:22;98627.38;;;6.56;95.10
69911;BME280;63555;49.920;17.868;2023-03-21T21:34:22;98616.34;;;6.51;95.42
69911;BME280;63555;49.920;17.868;2023-03-21T21:39:23;98618.97;;;6.51;94.97
69911;BME280;63555;49.920;17.868;2023-03-21T21:44:25;98626.63;;;6.54;95.06
69911;BME280;63555;49.920;17.868;2023-03-21T21:49:26;98621.28;;;6.56;95.09
69911;BME280;63555;49.920;17.868;2023-03-21T21:54:27;98622.13;;;6.56;95.45
69911;BME280;63555;49.920;17.868;2023-03-21T21:59:29;98610.81;;;6.56;95.43
69911;BME280;63555;49.920;17.868;2023-03-21T22:04:29;98606.50;;;6.55;94.87
69911;BME280;63555;49.920;17.868;2023-03-21T22:09:30;98611.66;;;6.56;95.80
69911;BME280;63555;49.920;17.868;2023-03-21T22:14:30;98610.44;;;6.62;95.42
69911;BME280;63555;49.920;17.868;2023-03-21T22:19:30;98610.16;;;6.66;95.13
69911;BME280;63555;49.920;17.868;2023-03-21T22:24:31;98603.97;;;6.67;95.59
69911;BME280;63555;49.920;17.868;2023-03-21T22:29:31;98610.16;;;6.66;95.83
69911;BME280;63555;49.920;17.868;2023-03-21T22:34:31;98610.16;;;6.66;95.47
69911;BME280;63555;49.920;17.868;2023-03-21T22:39:32;98604.16;;;6.64;95.25
69911;BME280;63555;49.920;17.868;2023-03-21T22:44:32;98619.97;;;6.63;95.72
69911;BME280;63555;49.920;17.868;2023-03-21T22:49:37;98614.94;;;6.60;95.11
69911;BME280;63555;49.920;17.868;2023-03-21T22:54:38;98607.25;;;6.57;94.99
69911;BME280;63555;49.920;17.868;2023-03-21T22:59:38;98612.50;;;6.57;95.51
69911;BME280;63555;49.920;17.868;2023-03-21T23:04:39;98597.81;;;6.54;94.96
69911;BME280;63555;49.920;17.868;2023-03-21T23:09:40;98596.03;;;6.55;95.82
69911;BME280;63555;49.920;17.868;2023-03-21T23:14:40;98598.66;;;6.55;95.75
69911;BME280;63555;49.920;17.868;2023-03-21T23:19:41;98607.16;;;6.58;95.43
69911;BME280;63555;49.920;17.868;2023-03-21T23:24:41;98606.22;;;6.59;95.81
69911;BME280;63555;49.920;17.868;2023-03-21T23:29:41;98593.13;;;6.59;95.05
69911;BME280;63555;49.920;17.868;2023-03-21T23:34:43;98570.78;;;6.54;95.61
69911;BME280;63555;49.920;17.868;2023-03-21T23:39:43;98577.81;;;6.39;95.18
69911;BME280;63555;49.920;17.868;2023-03-21T23:44:44;98581.56;;;6.21;95.25
69911;BME280;63555;49.920;17.868;2023-03-21T23:49:44;98582.44;;;6.05;94.83
69911;BME280;63555;49.920;17.868;2023-03-21T23:54:48;98585.72;;;5.95;94.75
69911;BME280;63555;49.920;17.868;2023-03-21T23:59:48;98578.28;;;5.87;95.15
